createdAt,value
2018-06-05T00:02:28.093Z,18.39
2018-06-05T00:04:56.188Z,18.38
2018-06-05T00:07:24.288Z,18.34
2018-06-05T00:09:52.401Z,18.27
2018-06-05T00:12:20.471Z,18.28
2018-06-05T00:14:48.844Z,18.27
2018-06-05T00:17:16.900Z,18.20
2018-06-05T00:19:44.954Z,18.21
2018-06-05T00:22:13.015Z,18.21
2018-06-05T00:24:41.908Z,18.25
2018-06-05T00:27:10.283Z,18.25
2018-06-05T00:29:38.387Z,18.26
2018-06-05T00:32:06.618Z,18.22
2018-06-05T00:34:34.731Z,18.21
2018-06-05T00:37:02.852Z,18.27
2018-06-05T00:39:31.021Z,18.26
2018-06-05T00:41:59.189Z,18.28
2018-06-05T00:44:27.665Z,18.18
2018-06-05T00:46:55.832Z,18.17
2018-06-05T00:49:23.937Z,18.08
2018-06-05T00:52:03.336Z,18.09
2018-06-05T00:54:31.597Z,18.05
2018-06-05T00:56:59.873Z,18.04
2018-06-05T00:59:28.050Z,18.07
2018-06-05T01:01:56.135Z,17.93
2018-06-05T01:04:24.162Z,17.93
2018-06-05T01:06:52.204Z,17.97
2018-06-05T01:09:20.279Z,17.98
2018-06-05T01:11:48.331Z,18.00
2018-06-05T01:14:16.439Z,17.96
2018-06-05T01:16:44.507Z,17.89
2018-06-05T01:19:12.552Z,17.96
2018-06-05T01:21:40.583Z,17.98
2018-06-05T01:24:08.789Z,17.93
2018-06-05T01:26:36.867Z,17.89
2018-06-05T01:29:05.064Z,17.88
2018-06-05T01:31:33.318Z,17.79
2018-06-05T01:34:09.292Z,17.81
2018-06-05T01:36:37.335Z,17.72
2018-06-05T01:39:08.501Z,17.73
2018-06-05T01:41:36.978Z,17.74
2018-06-05T01:44:05.155Z,17.73
2018-06-05T01:46:33.187Z,17.65
2018-06-05T01:49:01.223Z,17.63
2018-06-05T01:51:29.276Z,17.64
2018-06-05T01:53:57.323Z,17.65
2018-06-05T01:56:25.346Z,17.60
2018-06-05T01:58:53.411Z,17.65
2018-06-05T02:01:21.467Z,17.49
2018-06-05T02:03:49.479Z,17.51
2018-06-05T02:06:17.521Z,17.41
2018-06-05T02:08:45.900Z,17.47
2018-06-05T02:11:13.985Z,17.49
2018-06-05T02:13:42.047Z,17.40
2018-06-05T02:16:10.183Z,17.41
2018-06-05T02:18:38.304Z,17.38
2018-06-05T02:21:06.453Z,17.30
2018-06-05T02:23:34.641Z,17.36
2018-06-05T02:26:02.763Z,17.41
2018-06-05T02:28:30.952Z,17.47
2018-06-05T02:30:59.221Z,17.48
2018-06-05T02:33:27.375Z,17.47
2018-06-05T02:35:55.504Z,17.45
2018-06-05T02:38:23.556Z,17.46
2018-06-05T02:40:53.060Z,17.39
2018-06-05T02:43:21.527Z,17.23
2018-06-05T02:45:50.168Z,17.19
2018-06-05T02:48:18.232Z,17.14
2018-06-05T02:50:46.295Z,17.18
2018-06-05T02:53:14.344Z,17.14
2018-06-05T02:55:42.389Z,17.09
2018-06-05T02:58:10.407Z,17.07
2018-06-05T03:00:38.450Z,17.12
2018-06-05T03:03:06.507Z,17.13
2018-06-05T03:05:34.555Z,17.09
2018-06-05T03:08:02.607Z,17.05
2018-06-05T03:10:30.650Z,16.88
2018-06-05T03:12:58.690Z,16.95
2018-06-05T03:15:26.716Z,16.89
2018-06-05T03:17:54.788Z,16.92
2018-06-05T03:20:22.806Z,16.80
2018-06-05T03:22:50.862Z,16.78
2018-06-05T03:25:18.898Z,16.75
2018-06-05T03:27:46.952Z,16.77
2018-06-05T03:30:15.255Z,16.73
2018-06-05T03:32:43.324Z,16.76
2018-06-05T03:35:11.352Z,16.72
2018-06-05T03:37:39.435Z,16.77
2018-06-05T03:40:07.804Z,16.68
2018-06-05T03:42:35.937Z,16.73
2018-06-05T03:45:04.044Z,16.73
2018-06-05T03:47:32.227Z,16.69
2018-06-05T03:50:00.409Z,16.70
2018-06-05T03:52:28.646Z,16.55
2018-06-05T03:54:56.907Z,16.51
2018-06-05T03:57:24.931Z,16.54
2018-06-05T03:59:52.960Z,16.56
2018-06-05T04:02:21.001Z,16.60
2018-06-05T04:04:49.030Z,16.64
2018-06-05T04:07:17.071Z,16.57
2018-06-05T04:09:45.107Z,16.59
2018-06-05T04:12:13.134Z,16.50
2018-06-05T04:14:41.180Z,16.49
2018-06-05T04:17:09.223Z,16.51
2018-06-05T04:19:37.268Z,16.38
2018-06-05T04:22:05.307Z,16.34
2018-06-05T04:24:33.348Z,16.40
2018-06-05T04:27:01.724Z,16.51
2018-06-05T04:29:29.743Z,16.54
2018-06-05T04:31:57.774Z,16.54
2018-06-05T04:34:25.811Z,16.51
2018-06-05T04:36:53.840Z,16.62
2018-06-05T04:39:21.886Z,16.56
2018-06-05T04:41:49.916Z,16.64
2018-06-05T04:44:17.938Z,16.52
2018-06-05T04:46:45.995Z,16.59
2018-06-05T04:49:14.035Z,16.58
2018-06-05T04:51:42.100Z,16.57
2018-06-05T04:54:10.183Z,16.52
2018-06-05T04:56:38.541Z,16.52
2018-06-05T04:59:06.702Z,16.53
2018-06-05T05:01:34.807Z,16.63
2018-06-05T05:04:02.989Z,16.70
2018-06-05T05:06:31.156Z,16.69
2018-06-05T05:08:59.321Z,16.65
2018-06-05T05:11:27.481Z,16.50
2018-06-05T05:13:55.580Z,16.60
2018-06-05T05:16:23.766Z,16.58
2018-06-05T05:18:51.976Z,16.64
2018-06-05T05:21:20.020Z,16.53
2018-06-05T05:23:48.066Z,16.57
2018-06-05T05:26:16.090Z,16.65
2018-06-05T05:28:44.147Z,16.64
2018-06-05T05:31:12.194Z,16.53
2018-06-05T05:33:40.267Z,16.55
2018-06-05T05:36:08.295Z,16.59
2018-06-05T05:38:36.340Z,16.58
2018-06-05T05:41:04.388Z,16.57
2018-06-05T05:43:32.435Z,16.55
2018-06-05T05:46:00.512Z,16.56
2018-06-05T05:48:28.537Z,16.54
2018-06-05T05:50:56.579Z,16.57
2018-06-05T05:53:24.619Z,16.58
2018-06-05T05:55:52.984Z,16.62
2018-06-05T05:58:21.028Z,16.64
2018-06-05T06:00:49.079Z,16.68
2018-06-05T06:03:17.176Z,16.65
2018-06-05T06:05:45.286Z,16.52
2018-06-05T06:08:13.355Z,16.68
2018-06-05T06:10:41.465Z,16.66
2018-06-05T06:13:09.532Z,16.74
2018-06-05T06:15:37.628Z,16.72
2018-06-05T06:18:05.744Z,16.79
2018-06-05T06:20:33.881Z,16.74
2018-06-05T06:23:01.923Z,16.74
2018-06-05T06:25:30.517Z,16.73
2018-06-05T06:27:58.563Z,16.71
2018-06-05T06:30:26.615Z,16.83
2018-06-05T06:32:54.699Z,16.91
2018-06-05T06:35:22.784Z,16.72
2018-06-05T06:37:50.861Z,16.84
2018-06-05T06:40:18.901Z,16.97
2018-06-05T06:42:46.939Z,17.08
2018-06-05T06:45:15.003Z,17.13
2018-06-05T06:47:43.048Z,17.12
2018-06-05T06:50:11.343Z,17.03
2018-06-05T06:52:39.399Z,17.12
2018-06-05T06:55:07.435Z,17.16
2018-06-05T06:57:35.542Z,17.23
2018-06-05T07:00:03.678Z,17.27
2018-06-05T07:02:31.811Z,17.23
2018-06-05T07:04:59.863Z,17.14
2018-06-05T07:07:28.027Z,17.03
2018-06-05T07:09:56.092Z,17.03
2018-06-05T07:12:27.176Z,17.08
2018-06-05T07:14:55.244Z,17.13
2018-06-05T07:17:23.311Z,17.00
2018-06-05T07:19:51.360Z,17.09
2018-06-05T07:22:19.463Z,16.92
2018-06-05T07:24:47.575Z,16.98
2018-06-05T07:27:15.624Z,17.05
2018-06-05T07:29:43.649Z,17.11
2018-06-05T07:32:11.695Z,17.11
2018-06-05T07:34:39.750Z,17.16
2018-06-05T07:37:07.771Z,17.17
2018-06-05T07:39:35.827Z,17.28
2018-06-05T07:42:03.868Z,17.27
2018-06-05T07:44:31.940Z,17.34
2018-06-05T07:46:59.991Z,17.33
2018-06-05T07:49:28.074Z,17.08
2018-06-05T07:51:56.087Z,17.12
2018-06-05T07:54:24.231Z,17.26
2018-06-05T07:56:52.279Z,17.40
2018-06-05T07:59:20.314Z,17.44
2018-06-05T08:01:48.558Z,17.51
2018-06-05T08:04:16.640Z,17.63
2018-06-05T08:06:44.692Z,17.75
2018-06-05T08:09:12.932Z,17.79
2018-06-05T08:11:41.147Z,17.78
2018-06-05T08:14:09.422Z,17.89
2018-06-05T08:16:37.471Z,17.99
2018-06-05T08:19:05.539Z,18.07
2018-06-05T08:21:33.587Z,18.16
2018-06-05T08:24:01.671Z,18.25
2018-06-05T08:26:42.473Z,18.33
2018-06-05T08:29:10.541Z,18.44
2018-06-05T08:31:38.919Z,18.49
2018-06-05T08:34:07.014Z,18.52
2018-06-05T08:36:35.168Z,18.58
2018-06-05T08:39:03.448Z,18.61
2018-06-05T08:41:31.799Z,18.62
2018-06-05T08:44:00.097Z,18.60
2018-06-05T08:46:28.439Z,18.53
2018-06-05T08:48:56.520Z,18.48
2018-06-05T08:51:24.791Z,18.48
2018-06-05T08:53:52.924Z,18.47
2018-06-05T08:56:20.991Z,18.54
2018-06-05T08:58:49.051Z,18.59
2018-06-05T09:01:17.123Z,18.58
2018-06-05T09:03:45.180Z,18.63
2018-06-05T09:06:13.257Z,18.63
2018-06-05T09:08:41.319Z,18.53
2018-06-05T09:11:09.404Z,18.58
2018-06-05T09:13:37.536Z,18.61
2018-06-05T09:16:05.664Z,18.67
2018-06-05T09:18:33.816Z,18.69
2018-06-05T09:21:02.081Z,18.85
2018-06-05T09:23:30.729Z,18.95
2018-06-05T09:25:58.980Z,18.90
2018-06-05T09:28:27.077Z,18.91
2018-06-05T09:30:55.285Z,18.98
2018-06-05T09:33:23.399Z,19.02
2018-06-05T09:35:51.519Z,19.03
2018-06-05T09:38:19.572Z,19.03
2018-06-05T09:40:47.623Z,19.01
2018-06-05T09:43:15.696Z,19.08
2018-06-05T09:45:43.739Z,19.03
2018-06-05T09:48:12.132Z,19.00
2018-06-05T09:50:44.376Z,18.94
2018-06-05T09:53:12.483Z,19.13
2018-06-05T09:55:40.605Z,19.28
2018-06-05T09:58:08.907Z,19.38
2018-06-05T10:00:42.354Z,19.43
2018-06-05T10:03:10.601Z,19.33
2018-06-05T10:05:38.684Z,19.28
2018-06-05T10:08:06.813Z,19.30
2018-06-05T10:10:34.931Z,19.21
2018-06-05T10:13:02.996Z,19.32
2018-06-05T10:15:31.047Z,19.47
2018-06-05T10:17:59.079Z,19.47
2018-06-05T10:20:27.132Z,19.56
2018-06-05T10:22:55.159Z,19.60
2018-06-05T10:25:23.196Z,19.62
2018-06-05T10:27:51.259Z,19.68
2018-06-05T10:30:19.272Z,19.73
2018-06-05T10:32:47.591Z,19.71
2018-06-05T10:35:15.627Z,19.93
2018-06-05T10:37:43.682Z,20.02
2018-06-05T10:40:12.218Z,20.07
2018-06-05T10:42:40.243Z,20.23
2018-06-05T10:45:08.384Z,20.44
2018-06-05T10:47:36.554Z,20.43
2018-06-05T10:50:04.684Z,20.66
2018-06-05T10:52:34.025Z,20.76
2018-06-05T10:55:02.334Z,20.86
2018-06-05T10:57:30.529Z,21.01
2018-06-05T10:59:59.024Z,21.02
2018-06-05T11:02:27.104Z,21.15
2018-06-05T11:04:55.241Z,21.32
2018-06-05T11:07:23.303Z,21.48
2018-06-05T11:09:51.363Z,21.43
2018-06-05T11:12:19.431Z,21.18
2018-06-05T11:14:47.469Z,21.28
2018-06-05T11:17:15.562Z,21.35
2018-06-05T11:19:43.612Z,21.47
2018-06-05T11:22:11.663Z,21.45
2018-06-05T11:24:39.712Z,21.52
2018-06-05T11:27:07.751Z,21.54
2018-06-05T11:29:35.794Z,21.50
2018-06-05T11:32:03.831Z,21.57
2018-06-05T11:34:31.886Z,21.38
2018-06-05T11:36:59.917Z,21.52
2018-06-05T11:39:27.960Z,21.54
2018-06-05T11:41:56.446Z,21.53
2018-06-05T11:44:24.489Z,21.74
2018-06-05T11:46:52.609Z,21.93
2018-06-05T11:49:20.655Z,21.92
2018-06-05T11:51:48.708Z,21.65
2018-06-05T11:54:16.815Z,21.92
2018-06-05T11:56:44.823Z,22.01
2018-06-05T11:59:12.852Z,22.07
2018-06-05T12:01:40.893Z,22.00
2018-06-05T12:04:08.911Z,22.19
2018-06-05T12:06:36.963Z,22.26
2018-06-05T12:09:07.264Z,22.35
2018-06-05T12:11:35.368Z,22.37
2018-06-05T12:14:03.667Z,22.24
2018-06-05T12:16:31.724Z,22.40
2018-06-05T12:18:59.772Z,22.33
2018-06-05T12:21:27.840Z,22.30
2018-06-05T12:23:55.898Z,22.13
2018-06-05T12:26:23.981Z,21.97
2018-06-05T12:28:52.014Z,21.82
2018-06-05T12:31:20.044Z,21.96
2018-06-05T12:33:48.099Z,21.94
2018-06-05T12:36:16.142Z,22.13
2018-06-05T12:38:44.213Z,22.24
2018-06-05T12:41:12.275Z,22.40
2018-06-05T12:43:40.344Z,22.41
2018-06-05T12:46:08.399Z,22.42
2018-06-05T12:48:36.452Z,22.39
2018-06-05T12:51:04.496Z,22.41
2018-06-05T12:53:32.526Z,22.18
2018-06-05T12:56:00.585Z,21.70
2018-06-05T12:58:28.836Z,21.75
2018-06-05T13:00:56.944Z,21.86
2018-06-05T13:03:25.036Z,21.37
2018-06-05T13:05:53.176Z,21.41
2018-06-05T13:08:21.259Z,21.56
2018-06-05T13:10:49.301Z,21.44
2018-06-05T13:13:17.363Z,21.48
2018-06-05T13:15:45.404Z,21.06
2018-06-05T13:18:13.429Z,21.25
2018-06-05T13:20:41.552Z,21.37
2018-06-05T13:23:09.692Z,21.45
2018-06-05T13:25:37.738Z,21.60
2018-06-05T13:28:06.025Z,21.60
2018-06-05T13:30:34.596Z,21.44
2018-06-05T13:33:02.783Z,21.35
2018-06-05T13:35:30.909Z,21.35
2018-06-05T13:37:59.074Z,21.34
2018-06-05T13:40:27.187Z,21.28
2018-06-05T13:42:55.724Z,21.43
2018-06-05T13:45:23.775Z,21.47
2018-06-05T13:47:51.810Z,21.58
2018-06-05T13:50:19.880Z,21.57
2018-06-05T13:52:47.940Z,21.65
2018-06-05T13:55:15.979Z,21.63
2018-06-05T13:57:44.054Z,21.69
2018-06-05T14:00:12.088Z,21.78
2018-06-05T14:02:40.152Z,21.90
2018-06-05T14:05:08.240Z,21.96
2018-06-05T14:07:36.271Z,22.01
2018-06-05T14:10:04.307Z,22.21
2018-06-05T14:12:32.348Z,22.20
2018-06-05T14:15:00.376Z,22.37
2018-06-05T14:17:28.443Z,22.44
2018-06-05T14:19:56.467Z,22.46
2018-06-05T14:22:24.516Z,22.42
2018-06-05T14:24:52.546Z,22.27
2018-06-05T14:27:20.575Z,22.35
2018-06-05T14:29:48.886Z,22.38
2018-06-05T14:32:16.947Z,22.26
2018-06-05T14:34:45.000Z,22.33
2018-06-05T14:37:13.039Z,22.29
2018-06-05T14:39:41.081Z,22.30
2018-06-05T14:42:09.108Z,22.46
2018-06-05T14:44:37.139Z,22.65
2018-06-05T14:47:05.167Z,22.71
2018-06-05T14:49:33.447Z,22.64
2018-06-05T14:52:01.472Z,22.74
2018-06-05T14:54:30.121Z,22.51
2018-06-05T14:56:58.239Z,22.24
2018-06-05T14:59:26.287Z,22.02
2018-06-05T15:01:54.345Z,21.99
2018-06-05T15:04:22.379Z,21.78
2018-06-05T15:06:50.628Z,21.70
2018-06-05T15:09:18.677Z,21.69
2018-06-05T15:11:46.905Z,21.69
2018-06-05T15:14:15.705Z,21.63
2018-06-05T15:16:43.784Z,21.49
2018-06-05T15:19:13.891Z,21.44
2018-06-05T15:21:41.938Z,21.33
2018-06-05T15:24:10.180Z,21.32
2018-06-05T15:26:38.301Z,21.35
2018-06-05T15:29:07.625Z,21.30
2018-06-05T15:31:35.742Z,21.29
2018-06-05T15:34:04.103Z,21.26
2018-06-05T15:36:32.365Z,21.17
2018-06-05T15:39:00.544Z,21.21
2018-06-05T15:41:29.145Z,21.10
2018-06-05T15:43:57.373Z,21.13
2018-06-05T15:46:25.488Z,21.23
2018-06-05T15:48:53.571Z,21.25
2018-06-05T15:51:22.203Z,21.29
2018-06-05T15:53:50.376Z,21.29
2018-06-05T15:56:18.432Z,21.16
2018-06-05T15:58:46.497Z,21.16
2018-06-05T16:01:15.032Z,21.11
2018-06-05T16:03:43.309Z,21.24
2018-06-05T16:06:11.384Z,21.13
2018-06-05T16:08:39.548Z,21.10
2018-06-05T16:11:07.751Z,21.09
2018-06-05T16:13:35.855Z,21.29
2018-06-05T16:16:04.280Z,21.38
2018-06-05T16:18:33.376Z,21.39
2018-06-05T16:21:02.391Z,21.49
2018-06-05T16:23:30.918Z,21.53
2018-06-05T16:25:59.142Z,21.57
2018-06-05T16:28:28.870Z,21.59
2018-06-05T16:30:56.954Z,21.60
2018-06-05T16:33:25.327Z,21.63
2018-06-05T16:35:53.355Z,21.66
2018-06-05T16:38:21.380Z,21.67
2018-06-05T16:40:49.422Z,21.79
2018-06-05T16:43:17.459Z,21.78
2018-06-05T16:45:45.506Z,21.81
2018-06-05T16:48:13.564Z,21.78
2018-06-05T16:50:41.595Z,21.82
2018-06-05T16:53:09.636Z,21.81
2018-06-05T16:55:37.805Z,21.72
2018-06-05T16:58:05.927Z,21.76
2018-06-05T17:00:34.073Z,21.82
2018-06-05T17:03:02.417Z,21.85
2018-06-05T17:05:30.667Z,21.85
2018-06-05T17:07:58.874Z,21.92
2018-06-05T17:10:26.917Z,21.93
2018-06-05T17:12:55.072Z,21.90
2018-06-05T17:15:23.127Z,21.92
2018-06-05T17:17:51.208Z,21.92
2018-06-05T17:20:19.250Z,21.90
2018-06-05T17:22:47.340Z,21.96
2018-06-05T17:25:15.380Z,21.96
2018-06-05T17:27:43.429Z,21.97
2018-06-05T17:30:11.967Z,21.98
2018-06-05T17:32:40.277Z,21.97
2018-06-05T17:35:08.410Z,22.00
2018-06-05T17:37:36.521Z,22.00
2018-06-05T17:40:04.686Z,22.01
2018-06-05T17:42:32.880Z,22.00
2018-06-05T17:45:01.128Z,22.00
2018-06-05T17:47:29.308Z,21.97
2018-06-05T17:49:57.447Z,21.96
2018-06-05T17:52:25.638Z,21.93
2018-06-05T17:54:53.738Z,21.90
2018-06-05T17:57:21.887Z,21.84
2018-06-05T17:59:49.922Z,21.90
2018-06-05T18:02:17.999Z,21.87
2018-06-05T18:04:46.036Z,21.87
2018-06-05T18:07:14.089Z,21.86
2018-06-05T18:09:42.100Z,21.83
2018-06-05T18:12:10.175Z,21.85
2018-06-05T18:14:38.224Z,21.80
2018-06-05T18:17:06.806Z,21.82
2018-06-05T18:19:35.547Z,21.82
2018-06-05T18:22:03.948Z,21.82
2018-06-05T18:24:32.577Z,21.85
2018-06-05T18:27:01.292Z,21.84
2018-06-05T18:29:30.264Z,21.75
2018-06-05T18:31:59.617Z,21.73
2018-06-05T18:34:27.792Z,21.68
2018-06-05T18:36:55.875Z,21.60
2018-06-05T18:39:24.199Z,21.57
2018-06-05T18:41:52.604Z,21.52
2018-06-05T18:44:21.313Z,21.48
2018-06-05T18:46:49.964Z,21.40
2018-06-05T18:49:19.689Z,21.32
2018-06-05T18:51:48.382Z,21.28
2018-06-05T18:54:17.107Z,21.24
2018-06-05T18:56:45.905Z,21.16
2018-06-05T19:01:41.889Z,21.09
2018-06-05T19:04:10.571Z,21.03
2018-06-05T19:06:39.125Z,21.00
2018-06-05T19:09:09.211Z,20.95
2018-06-05T19:11:39.220Z,20.91
2018-06-05T19:14:08.462Z,20.85
2018-06-05T19:16:36.938Z,20.78
2018-06-05T19:19:05.536Z,20.72
2018-06-05T19:21:33.796Z,20.68
2018-06-05T19:24:01.876Z,20.63
2018-06-05T19:26:29.915Z,20.58
2018-06-05T19:28:58.105Z,20.53
2018-06-05T19:31:26.703Z,20.45
2018-06-05T19:33:54.843Z,20.41
2018-06-05T19:36:22.894Z,20.37
2018-06-05T19:38:50.983Z,20.31
2018-06-05T19:41:19.029Z,20.27
2018-06-05T19:43:50.275Z,20.22
2018-06-05T19:46:18.353Z,20.15
2018-06-05T19:48:48.145Z,20.09
2018-06-05T19:51:16.528Z,20.02
2018-06-05T19:53:44.563Z,19.96
2018-06-05T19:56:15.964Z,19.92
2018-06-05T19:58:44.159Z,19.86
2018-06-05T20:01:12.353Z,19.79
2018-06-05T20:03:41.622Z,19.72
2018-06-05T20:06:14.494Z,19.65
2018-06-05T20:08:42.644Z,19.59
2018-06-05T20:11:10.693Z,19.51
2018-06-05T20:13:38.961Z,19.42
2018-06-05T20:16:07.169Z,19.29
2018-06-05T20:18:35.556Z,19.21
2018-06-05T20:21:04.552Z,19.15
2018-06-05T20:23:32.933Z,19.07
2018-06-05T20:26:01.261Z,18.98
2018-06-05T20:28:29.601Z,18.83
2018-06-05T20:30:57.738Z,18.76
2018-06-05T20:33:26.151Z,18.68
2018-06-05T20:35:54.255Z,18.58
2018-06-05T20:38:22.321Z,18.53
2018-06-05T20:40:51.452Z,18.48
2018-06-05T20:43:19.498Z,18.43
2018-06-05T20:45:47.680Z,18.37
2018-06-05T20:48:15.788Z,18.31
2018-06-05T20:50:43.856Z,18.25
2018-06-05T20:53:12.192Z,18.18
2018-06-05T20:55:40.255Z,18.11
2018-06-05T20:58:08.335Z,18.06
2018-06-05T21:00:36.506Z,18.00
2018-06-05T21:03:05.183Z,17.95
2018-06-05T21:05:33.633Z,17.87
2018-06-05T21:08:01.872Z,17.81
2018-06-05T21:10:30.058Z,17.74
2018-06-05T21:12:58.615Z,17.70
2018-06-05T21:15:26.747Z,17.67
2018-06-05T21:17:54.844Z,17.63
2018-06-05T21:20:22.935Z,17.57
2018-06-05T21:22:50.995Z,17.52
2018-06-05T21:25:19.484Z,17.43
2018-06-05T21:27:47.545Z,17.37
2018-06-05T21:30:15.586Z,17.35
2018-06-05T21:32:43.643Z,17.30
2018-06-05T21:35:11.756Z,17.26
2018-06-05T21:37:39.811Z,17.23
2018-06-05T21:40:07.860Z,17.18
2018-06-05T21:42:35.972Z,17.14
2018-06-05T21:45:04.003Z,17.11
2018-06-05T21:47:33.214Z,17.05
2018-06-05T21:50:01.244Z,16.98
2018-06-05T21:52:29.295Z,16.92
2018-06-05T21:54:57.332Z,16.86
2018-06-05T21:57:25.360Z,16.81
2018-06-05T21:59:53.427Z,16.75
2018-06-05T22:02:21.487Z,16.72
2018-06-05T22:04:49.539Z,16.69
2018-06-05T22:07:17.568Z,16.65
2018-06-05T22:09:45.615Z,16.63
2018-06-05T22:12:13.643Z,16.59
2018-06-05T22:14:41.710Z,16.56
2018-06-05T22:17:09.738Z,16.52
2018-06-05T22:19:37.754Z,16.47
2018-06-05T22:22:05.804Z,16.35
2018-06-05T22:24:33.833Z,16.27
2018-06-05T22:27:01.883Z,16.24
2018-06-05T22:29:29.903Z,16.22
2018-06-05T22:31:57.951Z,16.21
2018-06-05T22:34:26.011Z,16.20
2018-06-05T22:36:54.053Z,16.18
2018-06-05T22:39:22.254Z,16.15
2018-06-05T22:41:50.284Z,16.13
2018-06-05T22:44:18.483Z,16.11
2018-06-05T22:46:47.247Z,16.09
2018-06-05T22:49:15.287Z,16.08
2018-06-05T22:51:43.339Z,16.04
2018-06-05T22:54:11.407Z,16.01
2018-06-05T22:56:39.460Z,15.99
2018-06-05T22:59:07.487Z,15.96
2018-06-05T23:01:35.551Z,15.95
2018-06-05T23:04:03.604Z,15.89
2018-06-05T23:06:31.678Z,15.90
2018-06-05T23:08:59.740Z,15.86
2018-06-05T23:11:27.796Z,15.79
2018-06-05T23:13:55.852Z,15.72
2018-06-05T23:16:24.235Z,15.70
2018-06-05T23:18:52.295Z,15.68
2018-06-05T23:21:20.325Z,15.68
2018-06-05T23:23:48.433Z,15.70
2018-06-05T23:26:16.511Z,15.69
2018-06-05T23:28:44.583Z,15.72
2018-06-05T23:31:12.628Z,15.73
2018-06-05T23:33:40.665Z,15.74
2018-06-05T23:36:08.744Z,15.71
2018-06-05T23:38:36.827Z,15.69
2018-06-05T23:41:04.880Z,15.68
2018-06-05T23:43:33.111Z,15.65
2018-06-05T23:46:01.385Z,15.64
2018-06-05T23:48:29.473Z,15.64
2018-06-05T23:50:57.569Z,15.66
2018-06-05T23:53:25.700Z,15.68
2018-06-05T23:55:53.773Z,15.69
2018-06-05T23:58:21.848Z,15.66
